Time;durP1;ratioP1;P1;durP2;ratioP2;P2;SDS_P1;SDS_P2;PMS_P1;PMS_P2;Temp;Humidity;BMP_temperature;BMP_pressure;BME280_temperature;BME280_humidity;BME280_pressure;Samples;Min_cycle;Max_cycle;Signal;HPM_P1;HPM_P2
2021/08/10 00:01:15;;;;;;;11.90;6.90;;;;;;;;;;4837880;29;20061;-75
2021/08/10 00:03:41;;;;;;;13.85;5.95;;;;;;;;;;4839117;29;20029;-76
2021/08/10 00:06:06;;;;;;;10.93;6.28;;;;;;;;;;4839485;29;20040;-77
2021/08/10 00:08:32;;;;;;;14.18;6.55;;;;;;;;;;4839149;29;20025;-77
2021/08/10 00:10:57;;;;;;;10.63;6.15;;;;;;;;;;4837958;29;20394;-72
2021/08/10 00:13:24;;;;;;;13.18;6.97;;;;;;;;;;4837406;29;20060;-72
2021/08/10 00:15:49;;;;;;;16.10;5.97;;;;;;;;;;4838825;29;20049;-71
2021/08/10 00:18:16;;;;;;;11.00;5.95;;;;;;;;;;4839047;29;20030;-71
2021/08/10 00:20:42;;;;;;;14.73;6.30;;;;;;;;;;4837354;29;20117;-70
2021/08/10 00:23:07;;;;;;;17.17;6.90;;;;;;;;;;4837478;29;20117;-71
2021/08/10 00:25:34;;;;;;;12.20;6.18;;;;;;;;;;4839000;29;20505;-71
2021/08/10 00:28:00;;;;;;;13.52;5.53;;;;;;;;;;4838532;29;20040;-72
2021/08/10 00:30:26;;;;;;;13.50;6.47;;;;;;;;;;4838549;29;20030;-72
2021/08/10 00:32:53;;;;;;;9.02;6.20;;;;;;;;;;4838183;29;20116;-73
2021/08/10 00:35:19;;;;;;;11.13;5.72;;;;;;;;;;4837978;29;20030;-73
2021/08/10 00:37:45;;;;;;;11.45;6.38;;;;;;;;;;4838819;29;20129;-73
2021/08/10 00:40:11;;;;;;;10.60;6.05;;;;;;;;;;4837859;29;20041;-73
2021/08/10 00:42:37;;;;;;;13.48;5.65;;;;;;;;;;4838678;29;20041;-77
2021/08/10 00:45:04;;;;;;;13.35;6.05;;;;;;;;;;4837640;29;20390;-78
2021/08/10 00:47:30;;;;;;;13.10;6.57;;;;;;;;;;4837441;29;20037;-78
2021/08/10 00:49:55;;;;;;;10.18;6.18;;;;;;;;;;4838853;29;20037;-77
2021/08/10 00:52:20;;;;;;;9.82;6.00;;;;;;;;;;4838853;29;20090;-77
2021/08/10 00:54:46;;;;;;;19.50;6.60;;;;;;;;;;4838501;29;20060;-76
2021/08/10 00:57:12;;;;;;;15.65;6.68;;;;;;;;;;4837532;29;20092;-75
2021/08/10 00:59:37;;;;;;;10.95;6.13;;;;;;;;;;4838318;29;20491;-75
2021/08/10 01:02:04;;;;;;;11.60;5.88;;;;;;;;;;4838641;29;20073;-76
2021/08/10 01:04:29;;;;;;;12.10;6.25;;;;;;;;;;4838520;29;20033;-77
2021/08/10 01:07:13;;;;;;;13.98;6.07;;;;;;;;;;4837409;29;20038;-76
2021/08/10 01:09:49;;;;;;;14.40;6.15;;;;;;;;;;4838589;29;20028;-78
2021/08/10 01:12:16;;;;;;;11.95;6.07;;;;;;;;;;4838693;29;20342;-77
2021/08/10 01:15:04;;;;;;;12.75;5.88;;;;;;;;;;4837035;29;20034;-76
2021/08/10 01:17:42;;;;;;;20.55;6.60;;;;;;;;;;4837049;29;20170;-76
2021/08/10 01:20:45;;;;;;;10.90;5.95;;;;;;;;;;4838644;29;20523;-77
2021/08/10 01:23:13;;;;;;;12.98;5.82;;;;;;;;;;4837231;29;20034;-77
2021/08/10 01:26:02;;;;;;;15.50;6.97;;;;;;;;;;4838516;29;20363;-76
2021/08/10 01:28:51;;;;;;;12.30;5.60;;;;;;;;;;4838270;29;20079;-74
2021/08/10 01:31:26;;;;;;;8.23;5.43;;;;;;;;;;4838578;29;20382;-73
2021/08/10 01:33:58;;;;;;;11.32;6.07;;;;;;;;;;4838561;29;20022;-73
2021/08/10 01:36:25;;;;;;;10.20;5.63;;;;;;;;;;4838475;29;20409;-74
2021/08/10 01:38:58;;;;;;;11.73;6.53;;;;;;;;;;4837264;29;20022;-73
2021/08/10 01:41:25;;;;;;;13.38;5.60;;;;;;;;;;4840529;29;20069;-73
2021/08/10 01:43:53;;;;;;;9.40;5.82;;;;;;;;;;4840337;29;20029;-73
2021/08/10 01:46:22;;;;;;;11.98;5.82;;;;;;;;;;4840533;29;20030;-74
2021/08/10 01:48:48;;;;;;;17.27;6.25;;;;;;;;;;4840298;29;20034;-73
2021/08/10 01:51:14;;;;;;;15.68;6.15;;;;;;;;;;4841921;29;20033;-74
2021/08/10 01:53:40;;;;;;;13.70;6.68;;;;;;;;;;4840044;29;20029;-71
2021/08/10 01:56:07;;;;;;;13.57;6.50;;;;;;;;;;4841569;29;20037;-71
2021/08/10 01:58:35;;;;;;;15.48;7.68;;;;;;;;;;4841090;29;20040;-73
2021/08/10 02:01:00;;;;;;;15.02;6.47;;;;;;;;;;4841812;29;20143;-72
2021/08/10 02:03:27;;;;;;;11.18;6.47;;;;;;;;;;4841250;29;20156;-72
2021/08/10 02:05:54;;;;;;;9.45;6.00;;;;;;;;;;4839805;29;20030;-73
2021/08/10 02:08:21;;;;;;;10.20;5.88;;;;;;;;;;4841356;29;20038;-72
2021/08/10 02:10:47;;;;;;;10.20;6.63;;;;;;;;;;4839682;29;20038;-73
2021/08/10 02:13:13;;;;;;;12.55;6.28;;;;;;;;;;4841438;29;20478;-72
2021/08/10 02:15:40;;;;;;;15.13;6.38;;;;;;;;;;4839747;29;20033;-72
2021/08/10 02:18:07;;;;;;;10.40;5.47;;;;;;;;;;4840141;29;20034;-75
2021/08/10 02:20:35;;;;;;;13.65;5.90;;;;;;;;;;4840696;29;20482;-76
2021/08/10 02:23:02;;;;;;;13.90;6.82;;;;;;;;;;4840021;29;20036;-77
2021/08/10 02:25:28;;;;;;;16.65;6.55;;;;;;;;;;4840998;29;20086;-77
2021/08/10 02:28:00;;;;;;;12.52;7.85;;;;;;;;;;4839650;29;20062;-76
2021/08/10 02:30:29;;;;;;;10.70;6.18;;;;;;;;;;4841093;29;20029;-76
2021/08/10 02:32:57;;;;;;;11.15;7.38;;;;;;;;;;4839909;29;20478;-72
2021/08/10 02:35:25;;;;;;;13.23;7.20;;;;;;;;;;4841097;29;20026;-74
2021/08/10 02:37:53;;;;;;;15.77;6.72;;;;;;;;;;4839398;29;20080;-73
2021/08/10 02:40:21;;;;;;;13.68;6.45;;;;;;;;;;4840867;29;20030;-73
2021/08/10 02:42:53;;;;;;;15.18;6.72;;;;;;;;;;4841818;29;20117;-73
2021/08/10 02:45:19;;;;;;;14.13;6.85;;;;;;;;;;4840718;29;20037;-73
2021/08/10 02:47:49;;;;;;;11.38;6.50;;;;;;;;;;4840322;29;20030;-73
2021/08/10 02:50:15;;;;;;;16.17;6.82;;;;;;;;;;4841390;29;20428;-73
2021/08/10 02:52:40;;;;;;;20.45;7.80;;;;;;;;;;4840616;29;20038;-73
2021/08/10 02:55:06;;;;;;;12.00;7.78;;;;;;;;;;4840639;29;20026;-76
2021/08/10 02:57:44;;;;;;;10.20;7.28;;;;;;;;;;4838886;29;20578;-76
2021/08/10 03:00:11;;;;;;;13.20;7.05;;;;;;;;;;4840232;29;20045;-72
2021/08/10 03:02:59;;;;;;;17.15;7.05;;;;;;;;;;4838908;29;20127;-72
2021/08/10 03:05:28;;;;;;;14.77;6.60;;;;;;;;;;4840281;29;20050;-76
2021/08/10 03:08:00;;;;;;;13.73;6.80;;;;;;;;;;4840115;29;20090;-77
2021/08/10 03:10:29;;;;;;;13.35;6.95;;;;;;;;;;4838971;29;20064;-75
2021/08/10 03:12:56;;;;;;;20.92;7.35;;;;;;;;;;4839730;29;20125;-76
2021/08/10 03:15:27;;;;;;;10.90;7.00;;;;;;;;;;4839923;29;20109;-76
2021/08/10 03:18:00;;;;;;;14.32;7.70;;;;;;;;;;4839824;29;20450;-76
2021/08/10 03:20:26;;;;;;;13.38;7.78;;;;;;;;;;4840460;29;20033;-76
2021/08/10 03:22:52;;;;;;;26.70;8.43;;;;;;;;;;4840033;29;20463;-78
2021/08/10 03:25:20;;;;;;;14.40;7.47;;;;;;;;;;4838933;29;20057;-75
2021/08/10 03:27:49;;;;;;;12.40;8.05;;;;;;;;;;4841199;29;20037;-77
2021/08/10 03:30:16;;;;;;;17.70;6.75;;;;;;;;;;4839910;29;20026;-77
2021/08/10 03:32:44;;;;;;;14.80;8.10;;;;;;;;;;4841711;29;20061;-76
2021/08/10 03:35:10;;;;;;;13.55;7.00;;;;;;;;;;4840116;29;20048;-71
2021/08/10 03:37:37;;;;;;;12.02;6.63;;;;;;;;;;4837705;29;20136;-71
2021/08/10 03:40:03;;;;;;;16.42;6.63;;;;;;;;;;4839577;29;20432;-72
2021/08/10 03:42:29;;;;;;;16.13;7.38;;;;;;;;;;4838549;29;20034;-71
2021/08/10 03:44:55;;;;;;;12.00;7.10;;;;;;;;;;4839196;29;20170;-73
2021/08/10 03:47:21;;;;;;;11.05;6.45;;;;;;;;;;4839404;29;20049;-74
2021/08/10 03:49:49;;;;;;;14.70;6.95;;;;;;;;;;4838253;29;20034;-72
2021/08/10 03:52:15;;;;;;;14.48;7.20;;;;;;;;;;4838547;29;20042;-72
2021/08/10 03:54:42;;;;;;;15.65;7.75;;;;;;;;;;4838208;29;20037;-73
2021/08/10 03:57:16;;;;;;;9.60;7.38;;;;;;;;;;4838579;29;20026;-73
2021/08/10 03:59:44;;;;;;;12.75;7.35;;;;;;;;;;4823115;29;20417;-73
2021/08/10 04:02:12;;;;;;;9.57;6.55;;;;;;;;;;4837637;29;20439;-70
2021/08/10 04:04:39;;;;;;;12.82;7.35;;;;;;;;;;4838884;29;20030;-71
2021/08/10 04:07:06;;;;;;;12.60;7.10;;;;;;;;;;4837924;29;20038;-71
2021/08/10 04:09:33;;;;;;;13.38;7.15;;;;;;;;;;4839274;29;20034;-73
2021/08/10 04:12:00;;;;;;;15.85;7.55;;;;;;;;;;4838783;29;20090;-70
2021/08/10 04:14:26;;;;;;;14.43;7.82;;;;;;;;;;4838971;29;20033;-71
2021/08/10 04:16:59;;;;;;;13.23;8.00;;;;;;;;;;4838836;29;20034;-72
2021/08/10 04:19:29;;;;;;;11.93;7.38;;;;;;;;;;4837565;29;20037;-71
2021/08/10 04:21:54;;;;;;;19.50;7.47;;;;;;;;;;4837609;29;20431;-70
2021/08/10 04:24:20;;;;;;;61.47;10.43;;;;;;;;;;4839087;29;20065;-72
2021/08/10 04:26:46;;;;;;;14.32;6.15;;;;;;;;;;4837859;29;20026;-73
2021/08/10 04:29:13;;;;;;;47.58;10.27;;;;;;;;;;4838500;29;20030;-73
2021/08/10 04:31:39;;;;;;;15.02;6.45;;;;;;;;;;4838995;29;20077;-74
2021/08/10 04:34:04;;;;;;;15.75;6.80;;;;;;;;;;4837697;29;20070;-73
2021/08/10 04:36:30;;;;;;;16.40;7.03;;;;;;;;;;4837316;29;20069;-73
2021/08/10 04:38:56;;;;;;;23.25;7.65;;;;;;;;;;4838558;29;20065;-72
2021/08/10 04:41:21;;;;;;;19.15;8.35;;;;;;;;;;4838685;29;20037;-73
2021/08/10 04:43:47;;;;;;;13.13;7.20;;;;;;;;;;4837126;29;20537;-72
2021/08/10 04:46:12;;;;;;;13.13;6.95;;;;;;;;;;4837805;29;20069;-76
2021/08/10 04:48:38;;;;;;;13.07;6.55;;;;;;;;;;4837061;29;20030;-74
2021/08/10 04:51:03;;;;;;;16.40;8.13;;;;;;;;;;4837605;29;20379;-76
2021/08/10 04:53:29;;;;;;;17.00;8.30;;;;;;;;;;4838972;29;20072;-75
2021/08/10 04:55:54;;;;;;;22.48;8.00;;;;;;;;;;4838355;29;20547;-76
2021/08/10 04:58:20;;;;;;;11.93;6.30;;;;;;;;;;4837304;29;20053;-77
2021/08/10 05:00:48;;;;;;;10.88;6.10;;;;;;;;;;4838433;29;20037;-75
2021/08/10 05:03:14;;;;;;;16.63;6.35;;;;;;;;;;4838476;29;20105;-76
2021/08/10 05:05:39;;;;;;;17.55;6.85;;;;;;;;;;4838291;29;20083;-74
2021/08/10 05:08:06;;;;;;;15.90;6.63;;;;;;;;;;4838719;29;20053;-78
2021/08/10 05:10:32;;;;;;;15.15;6.82;;;;;;;;;;4838696;29;20034;-74
2021/08/10 05:12:57;;;;;;;15.07;6.97;;;;;;;;;;4837265;29;20082;-77
2021/08/10 05:15:23;;;;;;;14.20;6.38;;;;;;;;;;4839078;29;20041;-77
2021/08/10 05:17:48;;;;;;;16.73;6.60;;;;;;;;;;4840793;29;20522;-77
2021/08/10 05:20:14;;;;;;;19.70;9.05;;;;;;;;;;4842154;29;20065;-74
2021/08/10 05:22:41;;;;;;;17.40;7.25;;;;;;;;;;4840617;29;20030;-77
2021/08/10 05:25:07;;;;;;;22.48;7.93;;;;;;;;;;4840420;29;20116;-75
2021/08/10 05:27:33;;;;;;;17.27;7.93;;;;;;;;;;4841658;29;20186;-75
2021/08/10 05:29:59;;;;;;;15.45;7.88;;;;;;;;;;4841751;29;20539;-77
2021/08/10 05:32:24;;;;;;;28.02;7.05;;;;;;;;;;4841701;29;20038;-76
2021/08/10 05:34:50;;;;;;;19.98;7.18;;;;;;;;;;4840452;29;20045;-77
2021/08/10 05:37:15;;;;;;;17.17;8.35;;;;;;;;;;4841725;29;20133;-75
2021/08/10 05:39:41;;;;;;;14.50;7.43;;;;;;;;;;4836822;29;20507;-75
2021/08/10 05:42:06;;;;;;;15.98;6.88;;;;;;;;;;4833813;29;20383;-74
2021/08/10 05:44:32;;;;;;;19.70;9.73;;;;;;;;;;4831871;29;20072;-76
2021/08/10 05:46:58;;;;;;;21.20;7.18;;;;;;;;;;4839180;29;20034;-77
2021/08/10 05:49:23;;;;;;;16.98;7.07;;;;;;;;;;4841257;29;20463;-77
2021/08/10 05:51:48;;;;;;;11.60;6.75;;;;;;;;;;4841103;29;20038;-76
2021/08/10 05:54:14;;;;;;;14.05;7.07;;;;;;;;;;4841464;29;20442;-78
2021/08/10 05:56:40;;;;;;;9.55;6.00;;;;;;;;;;4840009;29;20471;-74
2021/08/10 05:59:06;;;;;;;39.50;13.27;;;;;;;;;;4836815;29;20048;-75
2021/08/10 06:01:35;;;;;;;15.40;6.97;;;;;;;;;;4844289;29;20038;-75
2021/08/10 06:04:03;;;;;;;11.27;5.72;;;;;;;;;;4842560;29;20710;-78
2021/08/10 06:06:28;;;;;;;11.73;6.05;;;;;;;;;;4842463;29;20030;-78
2021/08/10 06:08:54;;;;;;;13.52;5.80;;;;;;;;;;4841356;29;20418;-76
2021/08/10 06:11:19;;;;;;;12.98;7.90;;;;;;;;;;4839959;29;20038;-75
2021/08/10 06:13:45;;;;;;;20.60;10.57;;;;;;;;;;4839955;29;20090;-77
2021/08/10 06:16:12;;;;;;;10.65;6.07;;;;;;;;;;4842848;29;20474;-77
2021/08/10 06:18:37;;;;;;;10.93;6.15;;;;;;;;;;4841970;29;20030;-76
2021/08/10 06:21:03;;;;;;;9.95;5.88;;;;;;;;;;4844123;29;20136;-78
2021/08/10 06:23:28;;;;;;;13.98;6.13;;;;;;;;;;4835391;29;20065;-76
2021/08/10 06:25:54;;;;;;;13.90;6.15;;;;;;;;;;4834716;29;20034;-77
2021/08/10 06:28:19;;;;;;;14.82;6.63;;;;;;;;;;4841658;29;20393;-75
2021/08/10 06:30:45;;;;;;;20.58;6.65;;;;;;;;;;4833376;29;20026;-80
2021/08/10 06:33:11;;;;;;;10.07;5.57;;;;;;;;;;4839138;29;20497;-75
2021/08/10 06:35:36;;;;;;;11.35;5.75;;;;;;;;;;4838003;29;20037;-77
2021/08/10 06:38:02;;;;;;;13.30;5.40;;;;;;;;;;4835086;29;20065;-74
2021/08/10 06:40:28;;;;;;;15.18;7.22;;;;;;;;;;4835697;29;20037;-76
2021/08/10 06:42:53;;;;;;;11.68;5.68;;;;;;;;;;4838524;29;20048;-77
2021/08/10 06:45:19;;;;;;;29.13;6.28;;;;;;;;;;4833457;29;20044;-77
2021/08/10 06:47:47;;;;;;;27.05;7.55;;;;;;;;;;4837594;29;20493;-78
2021/08/10 06:50:14;;;;;;;34.83;8.93;;;;;;;;;;4839822;29;20034;-77
2021/08/10 06:52:40;;;;;;;16.50;6.47;;;;;;;;;;4838999;29;20152;-77
2021/08/10 06:55:06;;;;;;;9.45;5.00;;;;;;;;;;4838584;29;20040;-78
2021/08/10 06:57:31;;;;;;;55.83;16.42;;;;;;;;;;4837982;29;20055;-75
2021/08/10 06:59:57;;;;;;;11.82;5.40;;;;;;;;;;4841894;29;20033;-76
2021/08/10 07:02:22;;;;;;;17.17;7.63;;;;;;;;;;4835145;29;20033;-77
2021/08/10 07:04:49;;;;;;;13.73;6.13;;;;;;;;;;4838450;29;20033;-74
2021/08/10 07:07:15;;;;;;;24.52;6.68;;;;;;;;;;4838874;29;20031;-75
2021/08/10 07:09:41;;;;;;;15.05;6.53;;;;;;;;;;4843598;29;20526;-77
2021/08/10 07:12:07;;;;;;;11.10;5.20;;;;;;;;;;4837309;29;20449;-76
2021/08/10 07:14:33;;;;;;;8.55;5.13;;;;;;;;;;4854803;29;20044;-76
2021/08/10 07:16:59;;;;;;;9.00;5.75;;;;;;;;;;4839449;29;20579;-74
2021/08/10 07:19:25;;;;;;;9.45;5.03;;;;;;;;;;4829185;29;20049;-74
2021/08/10 07:21:51;;;;;;;10.40;4.97;;;;;;;;;;4835872;29;20090;-77
2021/08/10 07:24:19;;;;;;;11.38;5.60;;;;;;;;;;4835040;29;20038;-76
2021/08/10 07:26:45;;;;;;;19.60;5.65;;;;;;;;;;4836646;29;20037;-75
2021/08/10 07:29:15;;;;;;;7.82;4.85;;;;;;;;;;4836566;29;20109;-78
2021/08/10 07:31:42;;;;;;;15.43;5.65;;;;;;;;;;4836818;29;20475;-78
2021/08/10 07:34:08;;;;;;;8.43;5.25;;;;;;;;;;4837959;29;20034;-76
2021/08/10 07:36:34;;;;;;;13.77;4.90;;;;;;;;;;4837749;29;20044;-77
2021/08/10 07:39:02;;;;;;;6.13;4.75;;;;;;;;;;4832998;29;20044;-76
2021/08/10 07:41:28;;;;;;;16.25;5.75;;;;;;;;;;4835943;29;20767;-76
2021/08/10 07:43:55;;;;;;;8.27;5.00;;;;;;;;;;4837463;29;20032;-76
2021/08/10 07:46:24;;;;;;;21.83;5.85;;;;;;;;;;4837023;29;20030;-76
2021/08/10 07:48:51;;;;;;;8.57;5.40;;;;;;;;;;4840859;29;20044;-76
2021/08/10 07:51:17;;;;;;;9.95;4.75;;;;;;;;;;4842457;29;20057;-78
2021/08/10 07:53:44;;;;;;;14.43;5.47;;;;;;;;;;4851954;29;20033;-77
2021/08/10 07:56:13;;;;;;;13.88;5.20;;;;;;;;;;4842696;29;20038;-77
2021/08/10 07:58:40;;;;;;;11.30;5.80;;;;;;;;;;4845582;29;20033;-73
2021/08/10 08:01:06;;;;;;;13.40;5.30;;;;;;;;;;4856866;29;20018;-75
2021/08/10 08:03:33;;;;;;;15.85;5.60;;;;;;;;;;4840618;29;20683;-72
2021/08/10 08:05:59;;;;;;;14.32;6.25;;;;;;;;;;4840616;29;20637;-76
2021/08/10 08:08:27;;;;;;;65.90;15.50;;;;;;;;;;4841752;29;20041;-78
2021/08/10 08:10:53;;;;;;;15.88;6.45;;;;;;;;;;4837979;29;20030;-75
2021/08/10 08:13:20;;;;;;;13.43;5.15;;;;;;;;;;4843516;29;20383;-74
2021/08/10 08:15:46;;;;;;;19.83;5.63;;;;;;;;;;4848030;29;20509;-75
2021/08/10 08:18:12;;;;;;;10.30;5.03;;;;;;;;;;4836707;29;20038;-75
2021/08/10 08:20:37;;;;;;;17.70;5.82;;;;;;;;;;4836406;29;20029;-75
2021/08/10 08:23:03;;;;;;;13.68;5.22;;;;;;;;;;4836730;29;20061;-75
2021/08/10 08:25:28;;;;;;;11.13;5.63;;;;;;;;;;4834213;29;20419;-76
2021/08/10 08:27:54;;;;;;;11.48;5.80;;;;;;;;;;4839671;29;20048;-77
2021/08/10 08:30:20;;;;;;;7.93;4.35;;;;;;;;;;4837708;29;20034;-76
2021/08/10 08:32:45;;;;;;;14.45;5.47;;;;;;;;;;4847787;29;20108;-77
2021/08/10 08:35:11;;;;;;;11.75;4.95;;;;;;;;;;4834997;29;20040;-76
2021/08/10 08:37:36;;;;;;;12.70;4.95;;;;;;;;;;4833408;29;20053;-76
2021/08/10 08:40:04;;;;;;;8.00;4.95;;;;;;;;;;4834766;29;20553;-76
2021/08/10 08:42:30;;;;;;;8.80;4.97;;;;;;;;;;4833506;29;20530;-76
2021/08/10 08:44:56;;;;;;;9.48;4.68;;;;;;;;;;4838060;29;20034;-76
2021/08/10 08:47:22;;;;;;;9.73;4.28;;;;;;;;;;4829726;29;20043;-75
2021/08/10 08:49:49;;;;;;;9.82;3.58;;;;;;;;;;4839360;29;20037;-76
2021/08/10 08:52:16;;;;;;;9.13;3.78;;;;;;;;;;4847863;29;20029;-77
2021/08/10 08:54:42;;;;;;;6.53;3.40;;;;;;;;;;4837319;29;20057;-76
2021/08/10 08:57:09;;;;;;;11.27;4.72;;;;;;;;;;4838233;29;20036;-75
2021/08/10 08:59:35;;;;;;;78.85;10.95;;;;;;;;;;4843140;29;20043;-72
2021/08/10 09:02:01;;;;;;;10.85;5.35;;;;;;;;;;4842301;29;20033;-74
2021/08/10 09:04:27;;;;;;;9.18;4.95;;;;;;;;;;4842518;29;20034;-76
2021/08/10 09:06:54;;;;;;;27.08;12.25;;;;;;;;;;4842617;29;20056;-78
2021/08/10 09:09:26;;;;;;;17.80;5.40;;;;;;;;;;4844021;29;20085;-77
2021/08/10 09:11:58;;;;;;;9.50;4.18;;;;;;;;;;4846588;29;20034;-76
2021/08/10 09:14:26;;;;;;;9.88;5.20;;;;;;;;;;4837146;29;20044;-72
2021/08/10 09:17:08;;;;;;;8.38;4.63;;;;;;;;;;4831078;29;20033;-74
2021/08/10 09:19:47;;;;;;;11.63;6.00;;;;;;;;;;4824124;29;20520;-76
2021/08/10 09:22:22;;;;;;;6.25;4.20;;;;;;;;;;4832447;29;20030;-75
2021/08/10 09:24:56;;;;;;;13.23;4.70;;;;;;;;;;4831582;29;20560;-75
2021/08/10 09:27:38;;;;;;;8.65;4.32;;;;;;;;;;4832190;29;20038;-74
2021/08/10 09:30:15;;;;;;;7.22;4.05;;;;;;;;;;4822836;29;20029;-75
2021/08/10 09:33:00;;;;;;;9.38;4.28;;;;;;;;;;4846456;29;20614;-75
2021/08/10 09:35:31;;;;;;;8.95;5.28;;;;;;;;;;4829511;29;20102;-74
2021/08/10 09:38:05;;;;;;;6.20;3.45;;;;;;;;;;4830023;29;20094;-74
2021/08/10 09:40:38;;;;;;;7.72;3.97;;;;;;;;;;4830244;29;20046;-75
2021/08/10 09:43:27;;;;;;;6.95;3.60;;;;;;;;;;4831916;29;20471;-76
2021/08/10 09:46:04;;;;;;;13.05;4.20;;;;;;;;;;4833718;29;20041;-74
2021/08/10 09:48:30;;;;;;;8.90;3.55;;;;;;;;;;4845704;29;20789;-75
2021/08/10 09:51:10;;;;;;;5.88;3.30;;;;;;;;;;4830497;29;20041;-75
2021/08/10 09:53:36;;;;;;;7.80;3.45;;;;;;;;;;4831125;29;20042;-74
2021/08/10 09:56:02;;;;;;;5.65;3.50;;;;;;;;;;4829270;29;20041;-76
2021/08/10 09:58:28;;;;;;;11.75;7.55;;;;;;;;;;4831128;29;20113;-74
2021/08/10 10:00:59;;;;;;;14.52;4.78;;;;;;;;;;4827687;29;20542;-76
2021/08/10 10:03:26;;;;;;;6.70;3.25;;;;;;;;;;4825483;29;20041;-77
2021/08/10 10:05:53;;;;;;;9.20;3.60;;;;;;;;;;4846847;29;20037;-74
2021/08/10 10:08:20;;;;;;;10.20;4.82;;;;;;;;;;4817324;29;20038;-75
2021/08/10 10:10:47;;;;;;;11.27;3.28;;;;;;;;;;4830107;29;20026;-77
2021/08/10 10:13:17;;;;;;;7.03;3.25;;;;;;;;;;4828733;29;20033;-74
2021/08/10 10:15:44;;;;;;;7.07;3.60;;;;;;;;;;4846053;29;20424;-74
2021/08/10 10:18:11;;;;;;;8.35;3.47;;;;;;;;;;4830162;29;20042;-76
2021/08/10 10:20:41;;;;;;;6.30;3.88;;;;;;;;;;4827662;29;20037;-76
2021/08/10 10:23:09;;;;;;;8.50;3.88;;;;;;;;;;4828889;29;20046;-75
2021/08/10 10:25:35;;;;;;;5.95;4.10;;;;;;;;;;4828352;29;20044;-77
2021/08/10 10:28:01;;;;;;;10.38;4.10;;;;;;;;;;4830235;29;20034;-76
2021/08/10 10:30:28;;;;;;;6.82;3.28;;;;;;;;;;4829278;29;20042;-76
2021/08/10 10:32:53;;;;;;;14.65;3.30;;;;;;;;;;4832704;29;20188;-77
2021/08/10 10:35:19;;;;;;;9.30;3.97;;;;;;;;;;4829083;29;20133;-74
2021/08/10 10:37:46;;;;;;;6.13;2.90;;;;;;;;;;4832217;29;20065;-77
2021/08/10 10:40:15;;;;;;;12.05;3.67;;;;;;;;;;4829327;29;20038;-76
2021/08/10 10:42:56;;;;;;;6.80;3.97;;;;;;;;;;4830354;29;20049;-74
2021/08/10 10:45:36;;;;;;;5.05;2.95;;;;;;;;;;4826609;29;20046;-76
2021/08/10 10:48:22;;;;;;;7.38;2.72;;;;;;;;;;4830278;29;20185;-76
2021/08/10 10:51:12;;;;;;;11.25;4.00;;;;;;;;;;4827899;29;20026;-76
2021/08/10 10:53:42;;;;;;;4.43;2.78;;;;;;;;;;4831454;29;20034;-75
2021/08/10 10:56:26;;;;;;;11.90;2.85;;;;;;;;;;4830410;29;20026;-74
2021/08/10 10:58:53;;;;;;;11.50;4.20;;;;;;;;;;4831609;29;20072;-76
2021/08/10 11:01:30;;;;;;;5.88;3.75;;;;;;;;;;4827500;29;20053;-76
2021/08/10 11:04:02;;;;;;;6.68;2.80;;;;;;;;;;4845430;29;20029;-79
2021/08/10 11:06:47;;;;;;;8.05;2.78;;;;;;;;;;4828412;29;20163;-76
2021/08/10 11:09:42;;;;;;;8.60;3.05;;;;;;;;;;4827255;29;20033;-74
2021/08/10 11:12:32;;;;;;;7.28;2.95;;;;;;;;;;4829670;29;20133;-75
2021/08/10 11:14:59;;;;;;;7.85;3.35;;;;;;;;;;4828468;29;20491;-74
2021/08/10 11:17:25;;;;;;;6.55;3.25;;;;;;;;;;4832080;29;20048;-77
2021/08/10 11:19:52;;;;;;;7.90;3.33;;;;;;;;;;4828316;29;20048;-75
2021/08/10 11:22:18;;;;;;;7.80;3.35;;;;;;;;;;4829821;29;20038;-76
2021/08/10 11:24:46;;;;;;;4.93;2.60;;;;;;;;;;4832930;29;20918;-73
2021/08/10 11:27:43;;;;;;;8.85;3.85;;;;;;;;;;4834218;29;20033;-77
2021/08/10 11:30:21;;;;;;;5.15;3.08;;;;;;;;;;4829296;29;20064;-75
2021/08/10 11:32:49;;;;;;;6.60;2.95;;;;;;;;;;4827933;29;20033;-76
2021/08/10 11:35:28;;;;;;;8.98;3.20;;;;;;;;;;4830516;29;20056;-76
2021/08/10 11:38:15;;;;;;;5.97;2.90;;;;;;;;;;4829205;29;20073;-74
2021/08/10 11:41:02;;;;;;;5.28;3.10;;;;;;;;;;4829972;29;20083;-74
2021/08/10 11:43:42;;;;;;;6.10;3.10;;;;;;;;;;4830269;29;20098;-77
2021/08/10 11:46:14;;;;;;;7.43;3.63;;;;;;;;;;4832241;29;20104;-76
2021/08/10 11:48:42;;;;;;;6.55;3.22;;;;;;;;;;4831719;29;20165;-74
2021/08/10 11:51:23;;;;;;;5.78;3.33;;;;;;;;;;4829978;29;20030;-75
2021/08/10 11:53:49;;;;;;;13.07;3.57;;;;;;;;;;4827660;29;20106;-77
2021/08/10 11:56:29;;;;;;;9.77;3.25;;;;;;;;;;4828926;29;20168;-75
2021/08/10 11:58:59;;;;;;;6.95;3.20;;;;;;;;;;4826925;29;20038;-74
2021/08/10 12:01:25;;;;;;;14.07;3.25;;;;;;;;;;4830184;29;20100;-74
2021/08/10 12:03:52;;;;;;;9.50;3.53;;;;;;;;;;4829999;29;20080;-75
2021/08/10 12:06:26;;;;;;;5.68;3.30;;;;;;;;;;4836013;29;20042;-78
2021/08/10 12:08:51;;;;;;;7.53;3.35;;;;;;;;;;4835845;29;20038;-75
2021/08/10 12:11:22;;;;;;;10.68;3.95;;;;;;;;;;4839887;29;20065;-75
2021/08/10 12:13:47;;;;;;;11.05;4.90;;;;;;;;;;4831218;29;20025;-79
2021/08/10 12:16:13;;;;;;;9.25;3.17;;;;;;;;;;4832802;29;20390;-74
2021/08/10 12:18:49;;;;;;;7.05;3.45;;;;;;;;;;4832697;29;20044;-76
2021/08/10 12:21:17;;;;;;;7.63;3.20;;;;;;;;;;4829727;29;20073;-75
2021/08/10 12:23:50;;;;;;;5.15;3.40;;;;;;;;;;4829240;29;20481;-75
2021/08/10 12:26:21;;;;;;;7.40;3.35;;;;;;;;;;4830553;29;20690;-76
2021/08/10 12:28:54;;;;;;;7.03;3.72;;;;;;;;;;4829662;29;20034;-77
2021/08/10 12:31:20;;;;;;;5.63;3.92;;;;;;;;;;4829137;29;20383;-76
2021/08/10 12:33:54;;;;;;;8.10;4.13;;;;;;;;;;4830524;29;20070;-74
2021/08/10 12:36:20;;;;;;;13.45;3.92;;;;;;;;;;4830408;29;20068;-76
2021/08/10 12:38:48;;;;;;;8.40;4.03;;;;;;;;;;4831883;29;20544;-77
2021/08/10 12:41:14;;;;;;;6.50;3.33;;;;;;;;;;4828783;29;20030;-77
2021/08/10 12:43:40;;;;;;;4.80;3.70;;;;;;;;;;4830069;29;20044;-76
2021/08/10 12:46:26;;;;;;;8.50;3.55;;;;;;;;;;4832868;29;20878;-75
2021/08/10 12:49:01;;;;;;;5.47;3.55;;;;;;;;;;4831791;29;20824;-77
2021/08/10 12:51:46;;;;;;;9.77;3.42;;;;;;;;;;4828266;29;20768;-76
2021/08/10 12:54:11;;;;;;;7.28;3.65;;;;;;;;;;4842545;29;20809;-73
2021/08/10 12:56:37;;;;;;;8.20;3.45;;;;;;;;;;4833285;29;20044;-74
2021/08/10 12:59:02;;;;;;;10.63;3.60;;;;;;;;;;4828948;29;20098;-74
2021/08/10 13:01:38;;;;;;;8.30;3.67;;;;;;;;;;4827933;29;20061;-76
2021/08/10 13:04:07;;;;;;;8.55;3.53;;;;;;;;;;4830840;29;20455;-77
2021/08/10 13:06:33;;;;;;;5.97;3.25;;;;;;;;;;4831341;29;20042;-75
2021/08/10 13:08:59;;;;;;;9.98;3.67;;;;;;;;;;4830586;29;20038;-75
2021/08/10 13:11:26;;;;;;;10.70;4.28;;;;;;;;;;4830584;29;20502;-76
2021/08/10 13:14:02;;;;;;;7.80;3.53;;;;;;;;;;4832510;29;20037;-76
2021/08/10 13:16:38;;;;;;;9.43;3.70;;;;;;;;;;4835420;29;20056;-78
2021/08/10 13:19:14;;;;;;;5.53;3.35;;;;;;;;;;4833125;29;20695;-73
2021/08/10 13:21:51;;;;;;;6.93;3.80;;;;;;;;;;4834892;29;20057;-76
2021/08/10 13:24:19;;;;;;;7.40;3.58;;;;;;;;;;4794030;29;20061;-76
2021/08/10 13:26:47;;;;;;;8.40;3.80;;;;;;;;;;4810898;29;20402;-75
2021/08/10 13:29:14;;;;;;;7.13;3.40;;;;;;;;;;4809886;29;20030;-76
2021/08/10 13:31:54;;;;;;;6.35;3.83;;;;;;;;;;4824533;29;20034;-76
2021/08/10 13:34:31;;;;;;;8.65;3.42;;;;;;;;;;4811577;29;20087;-76
2021/08/10 13:36:57;;;;;;;5.75;3.80;;;;;;;;;;4818365;29;20078;-77
2021/08/10 13:39:22;;;;;;;11.07;3.90;;;;;;;;;;4815392;29;20477;-75
2021/08/10 13:41:52;;;;;;;5.93;3.80;;;;;;;;;;4827818;29;20034;-73
2021/08/10 13:44:17;;;;;;;7.18;4.28;;;;;;;;;;4813762;29;20067;-76
2021/08/10 13:46:45;;;;;;;5.57;3.88;;;;;;;;;;4814807;29;20055;-76
2021/08/10 13:49:11;;;;;;;9.52;3.97;;;;;;;;;;4824496;29;20041;-75
2021/08/10 13:51:38;;;;;;;9.85;4.25;;;;;;;;;;4806986;29;20039;-74
2021/08/10 13:54:03;;;;;;;9.85;3.70;;;;;;;;;;4815989;29;20061;-75
2021/08/10 13:56:29;;;;;;;8.18;3.75;;;;;;;;;;4814424;29;20038;-75
2021/08/10 13:58:58;;;;;;;6.80;3.50;;;;;;;;;;4815457;29;20041;-77
2021/08/10 14:01:46;;;;;;;8.43;3.72;;;;;;;;;;4812788;29;20185;-73
2021/08/10 14:04:09;;;;;;;6.68;3.40;;;;;;;;;;4814639;29;20132;-76
2021/08/10 14:06:34;;;;;;;9.35;3.60;;;;;;;;;;4810996;29;20038;-74
2021/08/10 14:09:01;;;;;;;7.40;4.05;;;;;;;;;;4806283;29;20846;-74
2021/08/10 14:11:27;;;;;;;12.18;3.92;;;;;;;;;;4810806;29;20502;-76
2021/08/10 14:13:52;;;;;;;8.15;3.40;;;;;;;;;;4813562;29;20038;-75
2021/08/10 14:16:21;;;;;;;10.73;4.47;;;;;;;;;;4809722;29;20030;-76
2021/08/10 14:18:48;;;;;;;6.97;3.90;;;;;;;;;;4813025;29;20050;-77
2021/08/10 14:21:14;;;;;;;6.35;3.55;;;;;;;;;;4809659;29;20050;-74
2021/08/10 14:23:39;;;;;;;5.07;3.58;;;;;;;;;;4811851;29;20061;-76
2021/08/10 14:26:06;;;;;;;8.60;3.88;;;;;;;;;;4825560;29;20149;-74
2021/08/10 14:28:31;;;;;;;5.90;3.28;;;;;;;;;;4825031;29;20034;-74
2021/08/10 14:30:58;;;;;;;8.45;3.88;;;;;;;;;;4806622;29;20023;-75
2021/08/10 14:33:24;;;;;;;7.63;4.05;;;;;;;;;;4808096;29;20041;-76
2021/08/10 14:35:51;;;;;;;9.27;3.97;;;;;;;;;;4806234;29;20034;-75
2021/08/10 14:38:16;;;;;;;7.55;4.15;;;;;;;;;;4808435;29;20051;-75
2021/08/10 14:40:43;;;;;;;12.35;3.88;;;;;;;;;;4821780;29;20128;-74
2021/08/10 14:43:09;;;;;;;6.13;3.72;;;;;;;;;;4816158;29;20065;-75
2021/08/10 14:45:34;;;;;;;7.40;3.55;;;;;;;;;;4813076;29;20070;-75